Time;durP1;ratioP1;P1;durP2;ratioP2;P2;SDS_P1;SDS_P2;PMS_P1;PMS_P2;Temp;Humidity;BMP_temperature;BMP_pressure;BME280_temperature;BME280_humidity;BME280_pressure;Samples;Min_cycle;Max_cycle;Signal;HPM_P1;HPM_P2
2022/03/20 00:01:31;;;;;;;3.60;1.55;;;2.30;99.90;;;;;;5171018;28;20318;-75
2022/03/20 00:04:06;;;;;;;1.17;1.17;;;2.30;99.90;;;;;;5199998;28;20427;-74
2022/03/20 00:06:40;;;;;;;2.05;1.85;;;2.20;99.90;;;;;;5197118;28;20049;-76
2022/03/20 00:09:14;;;;;;;1.60;1.60;;;2.20;99.90;;;;;;5194789;28;20029;-74
2022/03/20 00:11:45;;;;;;;1.10;1.10;;;2.10;99.90;;;;;;5186811;28;20033;-75
2022/03/20 00:14:17;;;;;;;0.82;0.82;;;2.10;99.90;;;;;;5216116;28;20606;-76
2022/03/20 00:17:01;;;;;;;0.85;0.85;;;2.00;99.90;;;;;;5216692;28;20361;-76
2022/03/20 00:19:37;;;;;;;0.52;0.52;;;2.00;99.90;;;;;;5215211;28;20032;-75
2022/03/20 00:22:12;;;;;;;2.72;2.63;;;2.00;99.90;;;;;;5217167;28;20482;-74
2022/03/20 00:24:50;;;;;;;1.67;1.58;;;1.90;99.90;;;;;;5200533;28;20040;-75
2022/03/20 00:27:21;;;;;;;1.25;1.25;;;2.00;99.90;;;;;;5211648;28;20041;-75
2022/03/20 00:29:56;;;;;;;0.70;0.70;;;2.10;99.90;;;;;;5215215;28;20037;-75
2022/03/20 00:32:31;;;;;;;1.10;1.10;;;2.00;99.90;;;;;;5210521;28;20048;-75
2022/03/20 00:35:05;;;;;;;1.20;1.20;;;2.10;99.90;;;;;;5209191;28;20029;-75
2022/03/20 00:37:39;;;;;;;;;;;2.10;99.90;;;;;;5220449;28;20028;-74
2022/03/20 00:40:13;;;;;;;0.65;0.65;;;2.10;99.90;;;;;;5190361;28;19913;-74
2022/03/20 00:42:48;;;;;;;1.40;1.40;;;2.10;99.90;;;;;;5209100;28;20044;-75
2022/03/20 00:45:19;;;;;;;;;;;2.00;99.90;;;;;;5202642;28;20033;-75
2022/03/20 00:47:52;;;;;;;2.63;1.98;;;2.10;99.90;;;;;;5209523;28;19909;-74
2022/03/20 00:50:26;;;;;;;3.10;2.80;;;2.00;99.90;;;;;;5186441;28;20017;-74
2022/03/20 00:53:00;;;;;;;;;;;2.00;99.90;;;;;;5210684;28;20029;-75
2022/03/20 00:55:34;;;;;;;0.93;0.93;;;1.90;99.90;;;;;;5191768;28;19924;-75
2022/03/20 00:58:06;;;;;;;2.22;2.13;;;1.90;99.90;;;;;;5211289;28;20029;-76
2022/03/20 01:00:38;;;;;;;1.23;1.23;;;1.90;99.90;;;;;;5209700;28;20028;-75
2022/03/20 01:03:12;;;;;;;1.02;1.02;;;1.90;99.90;;;;;;5208578;28;20038;-75
2022/03/20 01:05:49;;;;;;;0.82;0.82;;;1.90;99.90;;;;;;5191909;28;20390;-75
2022/03/20 01:08:26;;;;;;;1.45;1.45;;;1.90;99.90;;;;;;5194772;28;20041;-74
2022/03/20 01:11:00;;;;;;;1.52;1.50;;;1.80;99.90;;;;;;5205858;28;20028;-75
2022/03/20 01:13:37;;;;;;;1.15;1.15;;;1.80;99.90;;;;;;5188492;28;20052;-76
2022/03/20 01:16:09;;;;;;;1.10;1.10;;;1.80;99.90;;;;;;5205599;28;20040;-76
2022/03/20 01:18:44;;;;;;;0.68;0.68;;;1.60;99.90;;;;;;5211552;28;20021;-75
2022/03/20 01:21:21;;;;;;;2.08;1.98;;;1.60;99.90;;;;;;5200508;28;20014;-76
2022/03/20 01:24:00;;;;;;;1.60;1.50;;;1.60;99.90;;;;;;5205327;28;20032;-75
2022/03/20 01:26:40;;;;;;;1.48;1.23;;;1.70;99.90;;;;;;5198558;28;20041;-75
2022/03/20 01:29:14;;;;;;;1.95;1.85;;;1.60;99.90;;;;;;5193065;28;20041;-76
2022/03/20 01:31:49;;;;;;;1.02;1.02;;;1.50;99.90;;;;;;5204376;28;20063;-76
2022/03/20 01:34:22;;;;;;;1.33;1.30;;;1.50;99.90;;;;;;5203051;28;20036;-73
2022/03/20 01:36:57;;;;;;;1.80;1.70;;;1.50;99.90;;;;;;5203124;28;20069;-75
2022/03/20 01:39:29;;;;;;;1.30;1.30;;;1.50;99.90;;;;;;5196387;28;20192;-73
2022/03/20 01:42:03;;;;;;;1.23;1.23;;;1.50;99.90;;;;;;5210431;28;20033;-74
2022/03/20 01:44:40;;;;;;;0.88;0.88;;;1.50;99.90;;;;;;5179333;28;20029;-75
2022/03/20 01:47:12;;;;;;;1.48;1.38;;;1.40;99.90;;;;;;5202263;28;20029;-74
2022/03/20 01:49:49;;;;;;;1.55;1.55;;;1.40;99.90;;;;;;5218937;28;20037;-76
2022/03/20 01:52:24;;;;;;;2.00;1.80;;;1.50;99.90;;;;;;5212478;28;20035;-75
2022/03/20 01:54:58;;;;;;;2.03;1.92;;;1.50;99.90;;;;;;5205928;28;20029;-76
2022/03/20 01:57:41;;;;;;;1.15;1.15;;;1.40;99.90;;;;;;5186837;28;20048;-74
2022/03/20 02:00:19;;;;;;;1.27;1.27;;;1.40;99.90;;;;;;5195466;28;20028;-73
2022/03/20 02:02:52;;;;;;;3.53;3.20;;;1.40;99.90;;;;;;5210018;28;20231;-73
2022/03/20 02:05:26;;;;;;;1.52;1.50;;;1.40;99.90;;;;;;5194809;28;20048;-74
2022/03/20 02:07:59;;;;;;;4.38;2.47;;;1.40;99.90;;;;;;5203821;28;20031;-73
2022/03/20 02:10:40;;;;;;;0.70;0.70;;;1.40;99.90;;;;;;5183738;28;20044;-76
2022/03/20 02:13:16;;;;;;;0.85;0.85;;;1.40;99.90;;;;;;5208954;28;20032;-74
2022/03/20 02:15:57;;;;;;;2.33;2.17;;;1.40;99.90;;;;;;5209647;28;20041;-74
2022/03/20 02:18:29;;;;;;;3.50;2.20;;;1.30;99.90;;;;;;5206506;28;20024;-75
2022/03/20 02:21:04;;;;;;;1.15;1.15;;;1.20;99.90;;;;;;5209000;28;20056;-75
2022/03/20 02:23:36;;;;;;;2.63;2.45;;;1.20;99.90;;;;;;5202532;28;20039;-74
2022/03/20 02:26:11;;;;;;;2.42;2.33;;;1.20;99.90;;;;;;5224090;28;20029;-75
2022/03/20 02:28:43;;;;;;;1.63;1.55;;;1.10;99.90;;;;;;5204943;28;20037;-74
2022/03/20 02:31:17;;;;;;;0.95;0.95;;;1.10;99.90;;;;;;5202388;28;20032;-74
2022/03/20 02:33:56;;;;;;;0.40;0.40;;;1.10;99.90;;;;;;5186371;28;20025;-75
2022/03/20 02:36:29;;;;;;;0.77;0.77;;;1.10;99.90;;;;;;5218978;28;20056;-74
2022/03/20 02:39:03;;;;;;;1.45;1.42;;;1.00;99.90;;;;;;5200139;28;20349;-75
2022/03/20 02:41:38;;;;;;;;;;;0.90;99.90;;;;;;5210115;28;20034;-76
2022/03/20 02:44:12;;;;;;;0.95;0.95;;;0.90;99.90;;;;;;5211899;28;19917;-74
2022/03/20 02:46:43;;;;;;;0.98;0.95;;;0.90;99.90;;;;;;5189662;28;20533;-77
2022/03/20 02:49:15;;;;;;;0.82;0.82;;;0.80;99.90;;;;;;5211489;28;20028;-74
2022/03/20 02:51:57;;;;;;;1.38;1.33;;;0.90;99.90;;;;;;5192815;28;20037;-74
2022/03/20 02:54:28;;;;;;;0.80;0.80;;;0.80;99.90;;;;;;5183118;28;20025;-74
2022/03/20 02:57:08;;;;;;;3.03;2.08;;;0.70;99.90;;;;;;5214448;28;20045;-74
2022/03/20 02:59:42;;;;;;;0.50;0.50;;;0.60;99.90;;;;;;5199844;28;20032;-79
2022/03/20 03:02:16;;;;;;;0.60;0.60;;;0.60;99.90;;;;;;5216932;28;20032;-75
2022/03/20 03:04:51;;;;;;;1.38;1.38;;;0.50;99.90;;;;;;5207149;28;20037;-74
2022/03/20 03:10:55;;;;;;;1.30;1.27;;;0.40;99.90;;;;;;5209306;28;20033;-75
2022/03/20 03:13:34;;;;;;;1.80;1.65;;;0.20;99.90;;;;;;5193601;28;20024;-73
2022/03/20 03:16:13;;;;;;;0.50;0.50;;;0.10;99.90;;;;;;5198789;28;20040;-73
2022/03/20 03:18:47;;;;;;;1.90;1.63;;;0.10;99.90;;;;;;5196896;28;20033;-75
2022/03/20 03:21:20;;;;;;;4.50;1.33;;;0.10;99.90;;;;;;5196416;28;20021;-76
2022/03/20 03:23:58;;;;;;;0.47;0.47;;;0.10;99.90;;;;;;5180021;28;20033;-74
2022/03/20 03:26:32;;;;;;;0.60;0.60;;;0.10;99.90;;;;;;5199361;28;20071;-73
2022/03/20 03:29:07;;;;;;;0.70;0.70;;;0.10;99.90;;;;;;5194208;28;20385;-75
2022/03/20 03:31:40;;;;;;;0.60;0.60;;;0.10;99.90;;;;;;5191436;28;20033;-74
2022/03/20 03:37:12;;;;;;;0.57;0.57;;;0.00;99.90;;;;;;5194229;28;20048;-75
2022/03/20 03:39:48;;;;;;;4.75;4.30;;;-0.10;99.90;;;;;;5198231;28;20037;-74
2022/03/20 03:42:23;;;;;;;0.70;0.70;;;-0.10;99.90;;;;;;5198057;28;20461;-75
2022/03/20 03:44:57;;;;;;;;;;;-0.20;99.90;;;;;;5181712;28;20047;-75
2022/03/20 03:47:30;;;;;;;0.63;0.63;;;-0.40;99.90;;;;;;5190463;28;19925;-75
2022/03/20 03:50:05;;;;;;;0.40;0.40;;;-0.60;99.90;;;;;;5184308;28;20033;-74
2022/03/20 03:52:38;;;;;;;1.08;1.08;;;-0.80;99.90;;;;;;5183894;28;20050;-75
2022/03/20 03:55:13;;;;;;;0.52;0.52;;;-0.80;99.90;;;;;;5218332;28;20029;-74
2022/03/20 03:57:51;;;;;;;;;;;-0.90;99.90;;;;;;5218128;28;20048;-74
2022/03/20 04:00:26;;;;;;;0.55;0.55;;;-0.90;99.90;;;;;;5192011;28;19909;-75
2022/03/20 04:03:04;;;;;;;0.60;0.60;;;-1.10;99.90;;;;;;5205329;28;20033;-74
2022/03/20 04:05:40;;;;;;;0.40;0.40;;;-1.10;99.90;;;;;;5188325;28;20053;-73
2022/03/20 04:08:17;;;;;;;0.50;0.50;;;-1.20;99.90;;;;;;5191699;28;20191;-72
2022/03/20 04:10:53;;;;;;;0.80;0.80;;;-1.20;99.90;;;;;;5207777;28;20392;-74
2022/03/20 04:13:37;;;;;;;0.70;0.70;;;-1.20;99.90;;;;;;5200518;28;20032;-75
2022/03/20 04:16:14;;;;;;;0.87;0.87;;;-1.20;99.90;;;;;;5175828;28;20369;-73
2022/03/20 04:18:48;;;;;;;0.65;0.65;;;-1.30;99.90;;;;;;5202379;28;20472;-73
2022/03/20 04:21:24;;;;;;;0.60;0.60;;;-1.20;99.90;;;;;;5200555;28;20031;-74
2022/03/20 04:23:58;;;;;;;1.30;1.30;;;-1.30;99.90;;;;;;5220106;28;20017;-73
2022/03/20 04:26:33;;;;;;;1.10;1.10;;;-1.30;99.90;;;;;;5193653;28;20017;-72
2022/03/20 04:29:07;;;;;;;0.43;0.43;;;-1.30;99.90;;;;;;5192761;28;20030;-73
2022/03/20 04:31:41;;;;;;;0.30;0.30;;;-1.20;99.90;;;;;;5178737;28;20041;-72
2022/03/20 04:34:16;;;;;;;0.50;0.50;;;-1.20;99.90;;;;;;5197387;28;20015;-73
2022/03/20 04:36:51;;;;;;;0.63;0.63;;;-1.10;99.90;;;;;;5202614;28;20037;-73
2022/03/20 04:39:27;;;;;;;0.52;0.52;;;-1.00;99.90;;;;;;5191477;28;20465;-73
2022/03/20 04:42:02;;;;;;;0.40;0.40;;;-0.90;99.90;;;;;;5183951;28;20238;-72
2022/03/20 04:44:34;;;;;;;0.40;0.40;;;-0.80;99.90;;;;;;5202332;28;20047;-72
2022/03/20 04:58:35;;;;;;;2.13;1.98;;;-0.60;99.90;;;;;;5193568;28;20492;-74
2022/03/20 05:01:09;;;;;;;2.05;1.95;;;-0.60;99.90;;;;;;5192827;28;20049;-73
2022/03/20 05:03:41;;;;;;;2.80;2.70;;;-0.60;99.90;;;;;;5215110;28;20015;-72
2022/03/20 05:06:15;;;;;;;1.02;1.02;;;-0.60;99.90;;;;;;5173353;28;20076;-72
2022/03/20 05:08:46;;;;;;;0.60;0.60;;;-0.60;99.90;;;;;;5207921;28;20029;-73
2022/03/20 05:14:10;;;;;;;4.37;2.40;;;-0.60;99.90;;;;;;5209089;28;20032;-73
2022/03/20 05:16:45;;;;;;;1.00;1.00;;;-0.60;99.90;;;;;;5176137;28;20032;-73
2022/03/20 05:19:19;;;;;;;1.20;1.20;;;-0.60;99.90;;;;;;5199761;28;20597;-73
2022/03/20 05:21:54;;;;;;;;;;;-0.50;99.90;;;;;;5201476;28;20029;-73
2022/03/20 05:24:29;;;;;;;0.50;0.50;;;-0.50;99.90;;;;;;5191809;28;19912;-73
2022/03/20 05:27:01;;;;;;;0.90;0.90;;;-0.50;99.90;;;;;;5200546;28;20029;-74
2022/03/20 05:29:35;;;;;;;0.70;0.70;;;-0.50;99.90;;;;;;5198128;28;20030;-72
2022/03/20 05:32:08;;;;;;;0.77;0.77;;;-0.50;99.90;;;;;;5209629;28;20057;-74
2022/03/20 05:34:48;;;;;;;1.67;1.58;;;-0.40;99.90;;;;;;5202098;28;20029;-72
2022/03/20 05:37:25;;;;;;;0.57;0.57;;;-0.40;99.90;;;;;;5194832;28;20060;-73
2022/03/20 05:40:01;;;;;;;0.98;0.98;;;-0.30;99.90;;;;;;5219245;28;20036;-73
2022/03/20 05:42:41;;;;;;;0.50;0.50;;;-0.30;99.90;;;;;;5184026;28;20025;-73
2022/03/20 05:45:14;;;;;;;1.05;1.05;;;-0.30;99.90;;;;;;5188156;28;20027;-73
2022/03/20 05:47:46;;;;;;;0.85;0.85;;;-0.20;99.90;;;;;;5169929;28;20024;-74
2022/03/20 05:50:19;;;;;;;0.50;0.50;;;-0.10;99.90;;;;;;5202264;28;20046;-73
2022/03/20 05:52:51;;;;;;;0.60;0.60;;;0.00;99.90;;;;;;5207904;28;20029;-76
2022/03/20 05:58:01;;;;;;;0.70;0.70;;;0.30;99.90;;;;;;5204549;28;20039;-75
2022/03/20 05:58:15;;;;;;;1.02;1.02;;;0.60;99.90;;;;;;5190796;28;20033;-73
2022/03/20 06:00:49;;;;;;;1.25;1.25;;;0.90;99.90;;;;;;5201321;28;20032;-74
2022/03/20 06:03:23;;;;;;;0.60;0.60;;;1.10;99.90;;;;;;5183793;28;20040;-73
2022/03/20 06:05:57;;;;;;;0.60;0.60;;;1.40;99.90;;;;;;5198009;28;20048;-75
2022/03/20 06:08:32;;;;;;;1.70;1.60;;;1.50;99.90;;;;;;5211434;28;20032;-75
2022/03/20 06:11:06;;;;;;;2.05;1.95;;;1.70;99.90;;;;;;5215277;28;20027;-75
2022/03/20 06:13:47;;;;;;;1.63;1.60;;;1.80;99.90;;;;;;5217354;28;20029;-74
2022/03/20 06:16:20;;;;;;;1.60;1.50;;;2.00;99.90;;;;;;5180451;28;20032;-74
2022/03/20 06:18:54;;;;;;;0.65;0.65;;;2.20;99.90;;;;;;5198660;28;20029;-74
2022/03/20 06:21:34;;;;;;;0.47;0.47;;;2.30;99.90;;;;;;5201079;28;20017;-75
2022/03/20 06:24:06;;;;;;;1.45;1.35;;;2.60;99.90;;;;;;5218815;28;20472;-74
2022/03/20 06:26:40;;;;;;;0.50;0.50;;;2.80;99.90;;;;;;5210115;28;20422;-74
2022/03/20 06:29:15;;;;;;;;;;;2.80;99.90;;;;;;5200088;28;20040;-74
2022/03/20 06:31:49;;;;;;;0.63;0.63;;;3.00;99.90;;;;;;5215392;28;19909;-71
2022/03/20 06:34:21;;;;;;;0.80;0.80;;;3.10;99.90;;;;;;5205412;28;20348;-73
2022/03/20 06:36:59;;;;;;;1.27;1.27;;;3.30;99.90;;;;;;5199316;28;20041;-74
2022/03/20 06:39:36;;;;;;;1.08;1.08;;;3.40;99.90;;;;;;5216766;28;20021;-74
2022/03/20 06:42:11;;;;;;;0.70;0.70;;;3.60;99.90;;;;;;5180451;28;20625;-74
2022/03/20 06:44:45;;;;;;;0.80;0.80;;;3.70;99.90;;;;;;5216290;28;20017;-74
2022/03/20 06:47:24;;;;;;;1.48;1.40;;;3.90;99.90;;;;;;5180201;28;20900;-74
2022/03/20 06:49:56;;;;;;;1.35;1.35;;;4.00;99.90;;;;;;5183233;28;20037;-74
2022/03/20 06:52:31;;;;;;;0.70;0.70;;;3.90;99.90;;;;;;5213556;28;20487;-74
2022/03/20 06:55:05;;;;;;;1.50;1.45;;;3.90;99.90;;;;;;5199036;28;20388;-74
2022/03/20 06:57:42;;;;;;;0.88;0.88;;;4.20;99.90;;;;;;5197127;28;20484;-75
2022/03/20 07:00:16;;;;;;;1.77;1.67;;;4.40;99.90;;;;;;5200431;28;20023;-74
2022/03/20 07:02:48;;;;;;;1.55;1.48;;;4.40;99.90;;;;;;5212632;28;20211;-74
2022/03/20 07:05:20;;;;;;;8.25;1.23;;;4.20;99.90;;;;;;5196837;28;20049;-76
2022/03/20 07:07:53;;;;;;;0.57;0.57;;;4.10;99.90;;;;;;5185866;28;20056;-75
2022/03/20 07:10:29;;;;;;;1.02;1.02;;;4.30;99.90;;;;;;5212599;28;20017;-77
2022/03/20 07:15:56;;;;;;;2.92;2.72;;;4.60;99.90;;;;;;5202085;28;20464;-77
2022/03/20 07:18:28;;;;;;;0.90;0.90;;;4.80;99.90;;;;;;5178961;28;20410;-77
2022/03/20 07:21:01;;;;;;;1.27;1.27;;;4.90;99.90;;;;;;5185767;28;20051;-78
2022/03/20 07:23:38;;;;;;;0.93;0.93;;;5.00;99.90;;;;;;5209729;28;20029;-77
2022/03/20 07:31:52;;;;;;;0.90;0.90;;;5.60;99.90;;;;;;5217742;28;20033;-76
2022/03/20 07:34:27;;;;;;;0.88;0.88;;;5.40;99.90;;;;;;5209420;28;20071;-76
2022/03/20 07:36:59;;;;;;;1.40;1.40;;;5.70;99.90;;;;;;5215161;28;20049;-76
2022/03/20 07:39:37;;;;;;;1.00;1.00;;;5.90;99.90;;;;;;5184526;28;20625;-73
2022/03/20 07:42:11;;;;;;;1.30;1.30;;;6.30;99.90;;;;;;5216270;28;20035;-76
2022/03/20 07:44:48;;;;;;;0.93;0.93;;;6.40;99.90;;;;;;5218466;28;20039;-76
2022/03/20 07:47:24;;;;;;;0.90;0.90;;;6.30;99.90;;;;;;5208891;28;20025;-76
2022/03/20 07:50:01;;;;;;;0.93;0.93;;;6.70;99.90;;;;;;5200185;28;20538;-78
2022/03/20 07:52:35;;;;;;;1.38;1.35;;;6.70;99.90;;;;;;5182934;28;20569;-77
2022/03/20 07:55:12;;;;;;;1.35;1.35;;;6.70;99.90;;;;;;5208555;28;20030;-77
2022/03/20 07:57:47;;;;;;;1.10;1.10;;;6.60;99.90;;;;;;5210502;28;20025;-77
2022/03/20 08:00:20;;;;;;;1.67;1.58;;;7.10;99.90;;;;;;5199191;28;20024;-78
2022/03/20 08:02:52;;;;;;;0.70;0.70;;;7.50;99.90;;;;;;5193436;28;20036;-74
2022/03/20 08:05:27;;;;;;;0.80;0.80;;;7.30;99.90;;;;;;5164639;28;20047;-77
2022/03/20 08:08:03;;;;;;;1.00;1.00;;;7.50;99.90;;;;;;5199320;28;20033;-76
2022/03/20 08:10:39;;;;;;;1.02;1.02;;;7.60;99.90;;;;;;5211851;28;20024;-77
2022/03/20 08:13:16;;;;;;;0.95;0.95;;;7.90;99.90;;;;;;5206842;28;20033;-78
2022/03/20 08:15:48;;;;;;;2.00;1.90;;;8.20;99.90;;;;;;5190256;28;20353;-78
2022/03/20 08:18:23;;;;;;;1.65;1.58;;;8.00;99.90;;;;;;5212385;28;20063;-77
2022/03/20 08:21:00;;;;;;;0.68;0.68;;;8.30;99.90;;;;;;5203406;28;20037;-78
2022/03/20 08:23:37;;;;;;;0.70;0.70;;;8.20;99.90;;;;;;5178237;28;20013;-78
2022/03/20 08:26:12;;;;;;;1.52;1.52;;;8.40;99.90;;;;;;5192907;28;20301;-78
2022/03/20 08:28:47;;;;;;;0.77;0.77;;;8.40;99.90;;;;;;5221808;28;20012;-79
2022/03/20 08:31:24;;;;;;;1.40;1.40;;;8.70;99.90;;;;;;5211878;28;20311;-76
2022/03/20 08:33:59;;;;;;;1.33;1.13;;;8.30;99.90;;;;;;5206692;28;20049;-77
2022/03/20 08:36:34;;;;;;;0.80;0.80;;;8.30;99.90;;;;;;5206050;28;20037;-79
2022/03/20 08:39:12;;;;;;;1.67;1.60;;;8.80;99.90;;;;;;5211180;28;20053;-76
2022/03/20 08:41:47;;;;;;;1.27;1.27;;;8.60;99.90;;;;;;5181730;28;20033;-78
2022/03/20 08:44:21;;;;;;;1.90;1.80;;;8.70;99.90;;;;;;5173990;28;20030;-77
2022/03/20 08:46:55;;;;;;;1.25;1.25;;;9.10;99.90;;;;;;5206649;28;20044;-77
2022/03/20 08:49:29;;;;;;;1.10;1.10;;;9.10;99.90;;;;;;5206063;28;20041;-77
2022/03/20 08:52:01;;;;;;;1.27;1.27;;;8.90;99.90;;;;;;5196889;28;20080;-76
2022/03/20 08:54:37;;;;;;;0.95;0.95;;;9.40;99.90;;;;;;5206302;28;20031;-79
2022/03/20 08:57:09;;;;;;;1.92;1.83;;;9.20;99.90;;;;;;5209826;28;20024;-78
2022/03/20 08:59:42;;;;;;;1.40;1.40;;;8.90;99.90;;;;;;5220839;28;20043;-79
2022/03/20 09:02:13;;;;;;;1.00;1.00;;;9.50;99.90;;;;;;5203343;28;20051;-78
2022/03/20 09:04:45;;;;;;;1.00;1.00;;;9.90;99.90;;;;;;5221033;28;20033;-79
2022/03/20 09:07:16;;;;;;;1.42;1.38;;;10.00;99.90;;;;;;5223660;28;20037;-80
2022/03/20 09:09:48;;;;;;;0.82;0.82;;;9.80;99.90;;;;;;5205500;28;20035;-77
2022/03/20 09:12:20;;;;;;;1.48;1.48;;;9.40;99.90;;;;;;5221970;28;20049;-78
2022/03/20 09:14:52;;;;;;;1.17;1.17;;;9.60;99.90;;;;;;5232100;28;20311;-77
2022/03/20 09:20:15;;;;;;;0.98;0.98;;;9.60;99.90;;;;;;5227117;28;20033;-78
2022/03/20 09:22:47;;;;;;;1.40;1.30;;;10.30;99.90;;;;;;5183509;28;20051;-77
2022/03/20 09:25:22;;;;;;;1.05;1.05;;;10.40;99.90;;;;;;5220987;28;20322;-79
2022/03/20 09:27:54;;;;;;;1.55;1.55;;;10.80;99.90;;;;;;5230074;28;20042;-77
2022/03/20 09:30:26;;;;;;;2.28;2.17;;;9.90;99.90;;;;;;5203291;28;20022;-76
2022/03/20 09:33:01;;;;;;;1.15;1.15;;;10.20;99.90;;;;;;5204627;28;20388;-77
2022/03/20 09:35:34;;;;;;;;;;;10.20;99.90;;;;;;5191126;28;20033;-78
2022/03/20 09:38:07;;;;;;;1.50;1.50;;;10.60;99.90;;;;;;5213574;28;19927;-77
2022/03/20 09:40:40;;;;;;;1.83;1.73;;;10.20;99.90;;;;;;5221568;28;20021;-79
2022/03/20 09:43:12;;;;;;;1.83;1.73;;;11.00;99.90;;;;;;5220071;28;20054;-79
2022/03/20 09:45:43;;;;;;;1.77;1.67;;;10.90;99.90;;;;;;5212236;28;20035;-78
2022/03/20 09:48:16;;;;;;;0.82;0.82;;;10.40;99.90;;;;;;5223849;28;20025;-77
2022/03/20 09:50:49;;;;;;;1.60;1.50;;;10.70;99.90;;;;;;5209305;28;20221;-77
2022/03/20 09:53:26;;;;;;;2.33;2.17;;;10.60;99.90;;;;;;5211634;28;20047;-78
2022/03/20 09:55:58;;;;;;;1.83;1.73;;;10.10;99.90;;;;;;5178425;28;20289;-77
2022/03/20 09:58:32;;;;;;;2.10;2.00;;;9.80;99.90;;;;;;5180084;28;20056;-77
2022/03/20 10:01:09;;;;;;;1.55;1.55;;;9.90;99.90;;;;;;5219322;28;20025;-77
2022/03/20 10:03:43;;;;;;;3.03;2.40;;;10.00;99.90;;;;;;5214752;28;20024;-76
2022/03/20 10:06:16;;;;;;;1.95;1.85;;;9.50;99.90;;;;;;5194825;28;20052;-78
2022/03/20 10:09:02;;;;;;;1.25;1.25;;;9.90;99.90;;;;;;5220247;28;20041;-78
2022/03/20 10:11:40;;;;;;;1.40;1.40;;;10.00;99.90;;;;;;5194154;28;20033;-76
2022/03/20 10:14:20;;;;;;;1.20;1.20;;;9.90;99.90;;;;;;5189420;28;20318;-77
2022/03/20 10:17:13;;;;;;;2.78;2.25;;;10.10;99.90;;;;;;5189570;28;20364;-77
2022/03/20 10:19:47;;;;;;;0.90;0.90;;;10.00;99.90;;;;;;5194906;28;20021;-78
2022/03/20 10:22:19;;;;;;;1.10;1.10;;;9.80;99.90;;;;;;5192264;28;20026;-78
2022/03/20 10:24:52;;;;;;;0.90;0.90;;;10.20;99.90;;;;;;5209199;28;20067;-76
2022/03/20 10:27:28;;;;;;;3.00;2.80;;;10.20;99.90;;;;;;5224253;28;20539;-78
2022/03/20 10:30:00;;;;;;;2.00;1.90;;;9.70;99.90;;;;;;5211127;28;20341;-77
2022/03/20 10:32:35;;;;;;;2.50;2.30;;;9.70;99.90;;;;;;5225060;28;20666;-76
2022/03/20 10:35:17;;;;;;;1.98;1.88;;;10.00;99.90;;;;;;5199707;28;20409;-77
2022/03/20 10:37:55;;;;;;;1.10;1.10;;;10.00;99.90;;;;;;5203525;28;20036;-76
2022/03/20 10:40:29;;;;;;;1.45;1.45;;;9.70;99.90;;;;;;5202690;28;20051;-76
2022/03/20 10:43:12;;;;;;;1.42;1.30;;;9.90;99.90;;;;;;5206239;28;20026;-76
2022/03/20 10:46:00;;;;;;;0.77;0.77;;;10.30;99.90;;;;;;5206004;28;20031;-78
2022/03/20 10:48:38;;;;;;;1.02;1.02;;;10.40;99.90;;;;;;5225827;28;20047;-78
2022/03/20 10:51:10;;;;;;;1.75;1.73;;;10.40;99.90;;;;;;5209219;28;20045;-80
2022/03/20 10:53:58;;;;;;;2.80;2.50;;;10.60;99.90;;;;;;5187944;28;20052;-76
2022/03/20 10:56:30;;;;;;;1.65;1.55;;;10.40;99.90;;;;;;5190201;28;20028;-79
2022/03/20 10:59:17;;;;;;;1.73;1.70;;;10.40;99.90;;;;;;5218996;28;20041;-78
2022/03/20 11:01:49;;;;;;;3.90;2.60;;;9.70;99.90;;;;;;5198514;28;20047;-78
2022/03/20 11:04:24;;;;;;;2.33;2.13;;;10.20;99.90;;;;;;5212628;28;20559;-77
2022/03/20 11:07:07;;;;;;;2.67;2.47;;;10.20;99.90;;;;;;5205650;28;20457;-79
2022/03/20 11:09:41;;;;;;;3.25;2.95;;;11.30;99.90;;;;;;5188690;28;20490;-79
2022/03/20 11:12:22;;;;;;;1.88;1.80;;;11.60;99.90;;;;;;5196282;28;20495;-77
2022/03/20 11:15:08;;;;;;;0.77;0.77;;;12.20;99.90;;;;;;5213419;28;20071;-79
2022/03/20 11:17:46;;;;;;;1.85;1.75;;;12.10;99.90;;;;;;5169210;28;20212;-77
2022/03/20 11:20:23;;;;;;;1.42;1.38;;;11.80;99.90;;;;;;5213490;28;20350;-79
2022/03/20 11:23:01;;;;;;;1.08;1.05;;;10.90;99.90;;;;;;5202494;28;20033;-78
2022/03/20 11:25:41;;;;;;;0.90;0.90;;;11.00;99.90;;;;;;5202958;28;20496;-78
2022/03/20 11:28:14;;;;;;;0.98;0.98;;;11.10;99.90;;;;;;5221277;28;20051;-77
2022/03/20 11:30:47;;;;;;;1.20;1.20;;;11.00;99.90;;;;;;5204961;28;20059;-77
2022/03/20 11:33:27;;;;;;;1.55;1.45;;;10.50;99.90;;;;;;5199146;28;20044;-76
2022/03/20 11:36:04;;;;;;;2.17;1.65;;;10.60;99.90;;;;;;5204605;28;20021;-78
2022/03/20 11:38:40;;;;;;;1.08;1.08;;;11.40;99.90;;;;;;5196709;28;20041;-76
2022/03/20 11:41:14;;;;;;;0.82;0.82;;;13.20;99.90;;;;;;5190010;28;20327;-77
2022/03/20 11:44:14;;;;;;;2.20;2.10;;;13.20;99.90;;;;;;5183598;28;20048;-78
2022/03/20 11:47:19;;;;;;;2.15;1.95;;;12.80;99.90;;;;;;5194697;28;20029;-76
2022/03/20 11:50:42;;;;;;;1.93;1.27;;;12.40;99.90;;;;;;5203245;28;20546;-78
2022/03/20 11:53:27;;;;;;;1.02;1.02;;;12.90;99.90;;;;;;5176507;28;20040;-78
2022/03/20 11:56:30;;;;;;;0.95;0.95;;;12.00;99.90;;;;;;5196395;28;20029;-76
2022/03/20 11:59:02;;;;;;;0.95;0.95;;;13.30;99.80;;;;;;5193909;28;20371;-78
2022/03/20 12:02:05;;;;;;;1.75;1.67;;;13.50;99.20;;;;;;5184440;28;20039;-77
2022/03/20 12:05:18;;;;;;;2.20;1.80;;;14.50;98.30;;;;;;5169395;28;20032;-81
2022/03/20 12:07:58;;;;;;;2.42;2.25;;;13.60;98.40;;;;;;5206308;28;20025;-77
2022/03/20 12:11:26;;;;;;;1.10;1.10;;;14.90;97.70;;;;;;5195473;28;20452;-76
2022/03/20 12:14:32;;;;;;;1.10;1.10;;;14.00;96.80;;;;;;5166748;28;20036;-81
2022/03/20 12:17:04;;;;;;;1.65;1.55;;;13.80;97.40;;;;;;5187462;28;20423;-77
2022/03/20 12:19:53;;;;;;;0.85;0.85;;;13.30;97.60;;;;;;5201286;28;20029;-76
2022/03/20 12:22:25;;;;;;;1.85;1.75;;;13.00;97.50;;;;;;5212921;28;20039;-79
2022/03/20 12:25:04;;;;;;;2.13;2.03;;;13.60;97.40;;;;;;5220814;28;20095;-75
2022/03/20 12:27:36;;;;;;;0.90;0.90;;;13.20;97.10;;;;;;5187385;28;20465;-76
2022/03/20 12:30:12;;;;;;;1.27;1.27;;;12.90;98.00;;;;;;5194915;28;20052;-79
2022/03/20 12:32:47;;;;;;;1.33;1.33;;;12.30;97.60;;;;;;5203126;28;20962;-80
2022/03/20 12:35:33;;;;;;;;;;;13.20;97.70;;;;;;5217785;28;20028;-77
2022/03/20 12:38:04;;;;;;;0.80;0.80;;;13.30;96.60;;;;;;5189470;28;19909;-76
2022/03/20 12:40:36;;;;;;;0.90;0.90;;;13.10;97.30;;;;;;5204769;28;20219;-77
2022/03/20 12:43:13;;;;;;;2.20;2.10;;;13.20;96.60;;;;;;5202106;28;20047;-77
2022/03/20 12:45:55;;;;;;;1.25;1.25;;;13.10;96.50;;;;;;5197258;28;20024;-77
2022/03/20 12:48:32;;;;;;;1.92;1.83;;;14.00;96.20;;;;;;5191605;28;20035;-79
2022/03/20 12:51:14;;;;;;;0.90;0.90;;;12.70;95.90;;;;;;5193311;28;20234;-79
2022/03/20 12:53:46;;;;;;;1.20;1.20;;;13.20;96.40;;;;;;5195850;28;20037;-77
2022/03/20 12:58:54;;;;;;;;;;;13.00;96.90;;;;;;5230927;28;20021;-76
2022/03/20 13:01:38;;;;;;;1.85;1.77;;;12.60;96.60;;;;;;5208275;28;19923;-79
2022/03/20 13:04:19;;;;;;;1.45;1.35;;;14.60;95.80;;;;;;5190055;28;20586;-77
2022/03/20 13:06:52;;;;;;;1.67;1.63;;;14.70;95.90;;;;;;5177522;28;20050;-77
2022/03/20 13:09:24;;;;;;;4.25;1.88;;;14.50;94.40;;;;;;5191242;28;20072;-77
2022/03/20 13:12:03;;;;;;;1.00;1.00;;;14.40;94.40;;;;;;5216932;28;20219;-77
2022/03/20 13:14:48;;;;;;;0.50;0.50;;;13.80;95.10;;;;;;5217325;28;20030;-76
2022/03/20 13:17:28;;;;;;;3.20;1.15;;;14.50;94.80;;;;;;5201876;28;20027;-75
2022/03/20 13:20:19;;;;;;;1.85;1.67;;;14.00;94.40;;;;;;5202387;28;20412;-79
2022/03/20 13:22:56;;;;;;;2.15;1.63;;;14.00;94.80;;;;;;5176332;28;20042;-77
2022/03/20 13:25:31;;;;;;;2.90;2.70;;;13.10;94.60;;;;;;5211674;28;20020;-78
2022/03/20 13:28:07;;;;;;;1.05;1.05;;;13.10;95.00;;;;;;5190860;28;20518;-77
2022/03/20 13:30:44;;;;;;;0.82;0.82;;;13.30;94.40;;;;;;5208749;28;20049;-77
2022/03/20 13:33:28;;;;;;;0.85;0.85;;;12.70;93.90;;;;;;5214231;28;20058;-79
2022/03/20 13:36:12;;;;;;;1.25;1.25;;;12.20;93.90;;;;;;5212940;28;20476;-78
2022/03/20 13:38:50;;;;;;;0.90;0.90;;;12.10;94.10;;;;;;5221996;28;20052;-77
2022/03/20 13:41:27;;;;;;;1.67;1.65;;;11.60;94.70;;;;;;5221738;28;20019;-76
2022/03/20 13:44:02;;;;;;;1.02;1.02;;;11.80;94.80;;;;;;5209964;28;20039;-76
2022/03/20 13:46:38;;;;;;;1.38;1.30;;;11.60;95.20;;;;;;5210786;28;20024;-76
2022/03/20 13:49:10;;;;;;;1.55;1.50;;;11.40;94.20;;;;;;5173510;28;20039;-76
2022/03/20 13:51:49;;;;;;;1.42;1.33;;;11.70;94.40;;;;;;5197676;28;20017;-76
2022/03/20 13:54:23;;;;;;;1.20;1.20;;;12.00;94.10;;;;;;5225366;28;20043;-77
2022/03/20 13:57:16;;;;;;;1.80;1.70;;;12.80;93.40;;;;;;5208447;28;20059;-76
2022/03/20 13:59:55;;;;;;;0.75;0.75;;;12.60;93.70;;;;;;5209375;28;20037;-76
2022/03/20 14:02:41;;;;;;;1.67;1.67;;;12.60;94.40;;;;;;5208276;28;20044;-76
2022/03/20 14:05:24;;;;;;;1.08;1.08;;;12.80;94.30;;;;;;5188193;28;20037;-76
2022/03/20 14:08:15;;;;;;;0.80;0.80;;;13.10;94.40;;;;;;5196360;28;20028;-77
2022/03/20 14:10:59;;;;;;;0.90;0.90;;;12.20;94.30;;;;;;5200929;28;20037;-76
2022/03/20 14:13:41;;;;;;;2.92;2.72;;;11.30;94.90;;;;;;5192219;28;20040;-75
2022/03/20 14:16:17;;;;;;;1.52;1.42;;;11.20;95.40;;;;;;5188483;28;20041;-76
2022/03/20 14:18:48;;;;;;;0.93;0.93;;;11.40;94.90;;;;;;5182093;28;20035;-77